createdAt,value
2019-02-18T00:00:03.566Z,7.80
2019-02-18T00:01:25.841Z,8.08
2019-02-18T00:02:31.042Z,8.70
2019-02-18T00:03:36.280Z,8.70
2019-02-18T00:04:41.269Z,8.53
2019-02-18T00:05:46.259Z,8.33
2019-02-18T00:06:50.717Z,8.70
2019-02-18T00:07:55.823Z,8.60
2019-02-18T00:09:01.048Z,8.38
2019-02-18T00:10:05.961Z,8.48
2019-02-18T00:11:10.667Z,8.28
2019-02-18T00:12:15.654Z,8.60
2019-02-18T00:13:20.604Z,8.70
2019-02-18T00:14:25.885Z,8.78
2019-02-18T00:15:31.451Z,8.10
2019-02-18T00:16:36.758Z,7.87
2019-02-18T00:17:42.361Z,8.80
2019-02-18T00:18:47.657Z,7.95
2019-02-18T00:19:53.243Z,8.33
2019-02-18T00:20:58.520Z,8.33
2019-02-18T00:22:03.790Z,8.68
2019-02-18T00:23:09.387Z,8.43
2019-02-18T00:24:14.681Z,8.78
2019-02-18T00:25:19.958Z,8.68
2019-02-18T00:26:25.304Z,8.90
2019-02-18T00:27:30.322Z,7.83
2019-02-18T00:28:37.000Z,8.73
2019-02-18T00:29:42.110Z,8.40
2019-02-18T00:30:47.377Z,8.08
2019-02-18T00:31:52.649Z,7.92
2019-02-18T00:32:57.113Z,8.60
2019-02-18T00:34:02.352Z,8.55
2019-02-18T00:35:07.312Z,8.55
2019-02-18T00:36:15.149Z,9.00
2019-02-18T00:37:24.336Z,9.05
2019-02-18T00:38:26.402Z,8.30
2019-02-18T00:39:34.928Z,8.80
2019-02-18T00:40:40.160Z,8.63
2019-02-18T00:41:45.135Z,8.33
2019-02-18T00:42:50.397Z,8.08
2019-02-18T00:43:55.796Z,8.85
2019-02-18T00:45:01.342Z,8.15
2019-02-18T00:46:06.083Z,8.68
2019-02-18T00:47:11.067Z,7.85
2019-02-18T00:48:16.611Z,8.08
2019-02-18T00:49:22.170Z,8.23
2019-02-18T00:50:27.628Z,8.28
2019-02-18T00:51:32.889Z,8.35
2019-02-18T00:52:37.637Z,8.20
2019-02-18T00:53:42.876Z,8.30
2019-02-18T00:54:47.830Z,8.45
2019-02-18T00:55:53.382Z,9.05
2019-02-18T00:56:58.346Z,8.58
2019-02-18T00:58:02.783Z,8.73
2019-02-18T00:59:07.453Z,8.50
2019-02-18T01:00:12.556Z,8.53
2019-02-18T01:01:17.079Z,8.85
2019-02-18T01:02:22.337Z,8.20
2019-02-18T01:03:27.607Z,8.73
2019-02-18T01:04:32.688Z,8.25
2019-02-18T01:05:38.194Z,8.30
2019-02-18T01:06:42.952Z,8.48
2019-02-18T01:07:48.215Z,8.75
2019-02-18T01:08:53.527Z,8.80
2019-02-18T01:09:58.776Z,9.10
2019-02-18T01:11:03.521Z,7.65
2019-02-18T01:12:08.285Z,8.68
2019-02-18T01:13:13.890Z,8.20
2019-02-18T01:14:18.678Z,7.90
2019-02-18T01:15:23.977Z,7.97
2019-02-18T01:16:28.954Z,8.48
2019-02-18T01:17:33.882Z,8.38
2019-02-18T01:18:38.862Z,7.87
2019-02-18T01:19:44.220Z,8.78
2019-02-18T01:20:49.937Z,9.48
2019-02-18T01:21:54.950Z,8.58
2019-02-18T01:22:59.776Z,8.13
2019-02-18T01:24:04.728Z,8.60
2019-02-18T01:25:11.248Z,7.72
2019-02-18T01:26:16.219Z,8.65
2019-02-18T01:27:21.491Z,8.80
2019-02-18T01:28:26.548Z,8.68
2019-02-18T01:29:31.376Z,8.78
2019-02-18T01:30:36.054Z,8.38
2019-02-18T01:31:41.011Z,9.03
2019-02-18T01:32:45.754Z,8.55
2019-02-18T01:33:50.798Z,8.13
2019-02-18T01:34:55.790Z,8.20
2019-02-18T01:36:00.791Z,9.00
2019-02-18T01:37:05.477Z,9.10
2019-02-18T01:38:10.781Z,8.13
2019-02-18T01:39:16.162Z,8.83
2019-02-18T01:40:21.386Z,8.88
2019-02-18T01:41:26.163Z,8.23
2019-02-18T01:42:31.423Z,8.78
2019-02-18T01:43:36.959Z,8.35
2019-02-18T01:44:42.484Z,8.33
2019-02-18T01:45:47.172Z,8.13
2019-02-18T01:46:52.156Z,7.75
2019-02-18T01:47:59.881Z,8.58
2019-02-18T01:49:04.822Z,8.48
2019-02-18T01:50:12.537Z,7.80
2019-02-18T01:51:17.789Z,8.43
2019-02-18T01:52:23.055Z,8.85
2019-02-18T01:53:28.292Z,8.30
2019-02-18T01:54:32.980Z,8.10
2019-02-18T01:55:37.972Z,8.58
2019-02-18T01:56:43.001Z,8.08
2019-02-18T01:57:47.946Z,8.53
2019-02-18T01:58:53.051Z,8.60
2019-02-18T01:59:58.306Z,8.83
2019-02-18T02:01:03.317Z,8.75
2019-02-18T02:02:08.232Z,9.38
2019-02-18T02:03:13.271Z,8.58
2019-02-18T02:04:17.967Z,8.53
2019-02-18T02:05:23.450Z,8.55
2019-02-18T02:06:28.446Z,8.38
2019-02-18T02:07:33.567Z,8.35
2019-02-18T02:08:38.611Z,8.33
2019-02-18T02:09:43.585Z,8.50
2019-02-18T02:10:48.883Z,8.10
2019-02-18T02:11:53.686Z,8.05
2019-02-18T02:13:26.937Z,8.75
2019-02-18T02:14:32.206Z,8.48
2019-02-18T02:15:37.199Z,8.28
2019-02-18T02:16:42.474Z,8.58
2019-02-18T02:17:47.454Z,9.03
2019-02-18T02:18:52.746Z,8.75
2019-02-18T02:19:57.981Z,8.50
2019-02-18T02:21:02.747Z,8.78
2019-02-18T02:22:07.692Z,8.75
2019-02-18T02:23:12.687Z,8.05
2019-02-18T02:24:17.791Z,8.23
2019-02-18T02:25:23.061Z,8.65
2019-02-18T02:26:28.027Z,9.35
2019-02-18T02:27:33.019Z,8.83
2019-02-18T02:28:38.363Z,8.25
2019-02-18T02:29:43.112Z,8.88
2019-02-18T02:30:48.089Z,9.18
2019-02-18T02:31:55.573Z,8.53
2019-02-18T02:33:00.834Z,8.83
2019-02-18T02:34:06.125Z,8.43
2019-02-18T02:35:10.952Z,8.60
2019-02-18T02:36:15.982Z,8.50
2019-02-18T02:37:21.019Z,8.83
2019-02-18T02:38:26.202Z,8.08
2019-02-18T02:39:33.528Z,8.30
2019-02-18T02:40:39.199Z,8.50
2019-02-18T02:41:44.509Z,8.78
2019-02-18T02:42:50.134Z,8.40
2019-02-18T02:43:55.393Z,8.45
2019-02-18T02:45:00.405Z,8.40
2019-02-18T02:46:05.713Z,8.63
2019-02-18T02:47:10.700Z,8.35
2019-02-18T02:48:16.001Z,8.98
2019-02-18T02:49:21.103Z,8.80
2019-02-18T02:50:26.185Z,8.83
2019-02-18T02:51:31.444Z,8.45
2019-02-18T02:52:36.407Z,8.13
2019-02-18T02:53:41.695Z,8.45
2019-02-18T02:54:46.631Z,8.63
2019-02-18T02:55:51.945Z,7.75
2019-02-18T02:56:56.705Z,9.08
2019-02-18T02:58:02.329Z,8.65
2019-02-18T02:59:07.277Z,8.68
2019-02-18T03:00:12.125Z,8.28
2019-02-18T03:01:17.096Z,8.40
2019-02-18T03:02:22.119Z,8.20
2019-02-18T03:03:29.380Z,8.40
2019-02-18T03:04:34.361Z,9.63
2019-02-18T03:05:39.341Z,8.98
2019-02-18T03:06:44.685Z,8.63
2019-02-18T03:07:49.386Z,8.50
2019-02-18T03:08:54.424Z,9.03
2019-02-18T03:09:59.437Z,8.13
2019-02-18T03:11:04.722Z,8.78
2019-02-18T03:12:10.283Z,8.80
2019-02-18T03:13:15.700Z,8.45
2019-02-18T03:14:20.969Z,8.20
2019-02-18T03:15:25.987Z,9.15
2019-02-18T03:16:30.678Z,9.13
2019-02-18T03:17:35.924Z,8.65
2019-02-18T03:18:40.908Z,8.73
2019-02-18T03:19:46.123Z,8.20
2019-02-18T03:20:51.391Z,8.23
2019-02-18T03:21:56.783Z,8.98
2019-02-18T03:23:02.313Z,8.73
2019-02-18T03:24:07.594Z,8.80
2019-02-18T03:25:20.410Z,8.83
2019-02-18T03:26:25.445Z,8.68
2019-02-18T03:27:30.434Z,8.23
2019-02-18T03:29:17.593Z,8.73
2019-02-18T03:30:41.614Z,8.25
2019-02-18T03:31:46.294Z,8.18
2019-02-18T03:32:55.003Z,8.60
2019-02-18T03:34:07.042Z,8.78
2019-02-18T03:35:12.301Z,8.90
2019-02-18T03:36:17.298Z,8.85
2019-02-18T03:37:21.982Z,8.60
2019-02-18T03:38:31.452Z,9.03
2019-02-18T03:39:34.011Z,8.10
2019-02-18T03:40:39.001Z,8.40
2019-02-18T03:41:44.243Z,8.43
2019-02-18T03:42:49.269Z,9.55
2019-02-18T03:43:53.966Z,8.80
2019-02-18T03:44:59.215Z,9.23
2019-02-18T03:46:04.474Z,8.80
2019-02-18T03:47:09.732Z,9.15
2019-02-18T03:48:14.427Z,8.68
2019-02-18T03:49:19.703Z,8.70
2019-02-18T03:50:24.967Z,8.70
2019-02-18T03:51:30.234Z,8.88
2019-02-18T03:52:35.505Z,8.15
2019-02-18T03:53:40.786Z,8.35
2019-02-18T03:54:45.963Z,8.83
2019-02-18T03:55:51.112Z,8.63
2019-02-18T03:56:56.370Z,8.73
2019-02-18T03:58:01.950Z,8.48
2019-02-18T03:59:06.902Z,7.95
2019-02-18T04:00:11.620Z,8.60
2019-02-18T04:01:17.178Z,8.85
2019-02-18T04:02:22.113Z,8.93
2019-02-18T04:03:26.601Z,8.80
2019-02-18T04:04:31.838Z,8.35
2019-02-18T04:05:36.812Z,8.15
2019-02-18T04:06:42.105Z,8.88
2019-02-18T04:07:47.359Z,8.48
2019-02-18T04:08:52.890Z,8.75
2019-02-18T04:09:57.891Z,8.38
2019-02-18T04:11:03.179Z,8.68
2019-02-18T04:12:07.966Z,8.00
2019-02-18T04:13:13.549Z,8.08
2019-02-18T04:14:18.280Z,7.78
2019-02-18T04:15:22.958Z,8.30
2019-02-18T04:16:27.700Z,8.58
2019-02-18T04:17:32.689Z,8.43
2019-02-18T04:18:37.972Z,8.05
2019-02-18T04:19:43.293Z,8.10
2019-02-18T04:20:48.135Z,8.70
2019-02-18T04:21:54.894Z,8.43
2019-02-18T04:23:00.499Z,8.78
2019-02-18T04:24:05.492Z,9.00
2019-02-18T04:25:10.774Z,7.87
2019-02-18T04:26:16.213Z,7.92
2019-02-18T04:27:21.485Z,8.05
2019-02-18T04:28:26.449Z,8.35
2019-02-18T04:29:32.021Z,9.28
2019-02-18T04:30:37.047Z,8.30
2019-02-18T04:31:42.367Z,8.60
2019-02-18T04:32:47.914Z,7.92
2019-02-18T04:33:52.586Z,8.75
2019-02-18T04:34:58.140Z,8.20
2019-02-18T04:36:03.157Z,8.40
2019-02-18T04:37:08.149Z,8.08
2019-02-18T04:38:13.413Z,8.88
2019-02-18T04:39:18.693Z,8.65
2019-02-18T04:40:23.966Z,8.15
2019-02-18T04:41:29.007Z,8.33
2019-02-18T04:42:34.033Z,8.68
2019-02-18T04:43:41.960Z,8.63
2019-02-18T04:44:46.677Z,8.45
2019-02-18T04:45:51.962Z,8.15
2019-02-18T04:46:57.322Z,7.60
2019-02-18T04:48:02.615Z,7.87
2019-02-18T04:49:07.636Z,7.70
2019-02-18T04:50:12.685Z,8.35
2019-02-18T04:51:18.232Z,8.40
2019-02-18T04:52:23.524Z,9.20
2019-02-18T04:53:28.787Z,7.92
2019-02-18T04:54:33.758Z,8.10
2019-02-18T04:55:38.498Z,8.48
2019-02-18T04:56:43.217Z,8.78
2019-02-18T04:57:48.788Z,8.63
2019-02-18T04:58:54.059Z,8.85
2019-02-18T04:59:59.332Z,8.13
2019-02-18T05:01:04.388Z,9.08
2019-02-18T05:02:09.075Z,8.80
2019-02-18T05:03:14.079Z,7.92
2019-02-18T05:04:19.356Z,8.53
2019-02-18T05:05:23.801Z,8.15
2019-02-18T05:06:29.059Z,8.70
2019-02-18T05:07:34.049Z,8.45
2019-02-18T05:08:39.328Z,8.13
2019-02-18T05:09:44.922Z,8.65
2019-02-18T05:10:50.332Z,8.35
2019-02-18T05:11:55.064Z,8.98
2019-02-18T05:13:00.060Z,8.25
2019-02-18T05:14:04.787Z,8.28
2019-02-18T05:15:09.673Z,7.75
2019-02-18T05:16:14.554Z,8.20
2019-02-18T05:17:19.877Z,7.60
2019-02-18T05:18:24.863Z,8.48
2019-02-18T05:19:30.054Z,8.83
2019-02-18T05:20:34.764Z,8.23
2019-02-18T05:21:39.735Z,8.18
2019-02-18T05:22:45.017Z,7.92
2019-02-18T05:23:50.291Z,8.60
2019-02-18T05:24:57.898Z,8.60
2019-02-18T05:26:02.656Z,8.30
2019-02-18T05:27:07.357Z,8.40
2019-02-18T05:28:12.416Z,7.58
2019-02-18T05:29:17.684Z,8.10
2019-02-18T05:30:22.787Z,7.65
2019-02-18T05:31:27.514Z,7.78
2019-02-18T05:32:32.458Z,8.40
2019-02-18T05:33:37.459Z,7.78
2019-02-18T05:34:42.748Z,7.67
2019-02-18T05:35:47.793Z,7.87
2019-02-18T05:36:53.093Z,8.08
2019-02-18T05:37:58.645Z,7.78
2019-02-18T05:39:17.104Z,8.03
2019-02-18T05:40:11.278Z,7.92
2019-02-18T05:41:16.277Z,8.15
2019-02-18T05:42:21.588Z,8.28
2019-02-18T05:43:26.279Z,8.45
2019-02-18T05:44:31.571Z,8.33
2019-02-18T05:45:37.203Z,8.63
2019-02-18T05:46:42.870Z,8.60
2019-02-18T05:47:47.889Z,7.95
2019-02-18T05:48:52.891Z,8.68
2019-02-18T05:49:57.887Z,7.97
2019-02-18T05:51:03.188Z,8.55
2019-02-18T05:52:08.728Z,8.38
2019-02-18T05:53:13.704Z,8.58
2019-02-18T05:54:18.902Z,8.50
2019-02-18T05:55:24.499Z,8.18
2019-02-18T05:56:30.125Z,8.18
2019-02-18T05:57:35.461Z,8.30
2019-02-18T05:58:40.741Z,7.83
2019-02-18T05:59:45.720Z,8.48
2019-02-18T06:00:51.036Z,8.20
2019-02-18T06:01:56.714Z,8.08
2019-02-18T06:03:01.719Z,8.28
2019-02-18T06:04:06.421Z,8.10
2019-02-18T06:05:11.665Z,7.75
2019-02-18T06:06:16.980Z,7.70
2019-02-18T06:07:22.252Z,7.85
2019-02-18T06:08:27.262Z,7.62
2019-02-18T06:09:32.805Z,7.95
2019-02-18T06:10:37.822Z,7.45
2019-02-18T06:11:42.548Z,8.05
2019-02-18T06:12:49.026Z,7.83
2019-02-18T06:13:54.294Z,7.72
2019-02-18T06:14:59.323Z,7.45
2019-02-18T06:16:04.914Z,7.80
2019-02-18T06:17:09.353Z,8.05
2019-02-18T06:18:14.581Z,7.47
2019-02-18T06:19:19.878Z,7.42
2019-02-18T06:20:25.222Z,8.05
2019-02-18T06:21:30.789Z,7.58
2019-02-18T06:22:38.381Z,7.87
2019-02-18T06:23:42.337Z,7.70
2019-02-18T06:24:47.391Z,7.72
2019-02-18T06:25:52.121Z,7.65
2019-02-18T06:26:56.734Z,8.05
2019-02-18T06:28:04.734Z,7.90
2019-02-18T06:29:09.692Z,8.48
2019-02-18T06:30:14.799Z,7.50
2019-02-18T06:31:19.972Z,8.18
2019-02-18T06:32:25.009Z,7.40
2019-02-18T06:33:30.616Z,8.30
2019-02-18T06:34:35.358Z,8.45
2019-02-18T06:35:40.610Z,7.67
2019-02-18T06:36:45.647Z,7.80
2019-02-18T06:37:50.387Z,7.83
2019-02-18T06:38:57.769Z,7.92
2019-02-18T06:40:03.197Z,8.40
2019-02-18T06:41:08.800Z,8.28
2019-02-18T06:42:13.811Z,7.78
2019-02-18T06:43:19.096Z,8.60
2019-02-18T06:44:33.299Z,7.80
2019-02-18T06:45:49.650Z,8.03
2019-02-18T06:46:59.911Z,7.30
2019-02-18T06:48:29.928Z,8.15
2019-02-18T06:49:35.200Z,7.95
2019-02-18T06:50:40.729Z,7.97
2019-02-18T06:51:45.846Z,7.72
2019-02-18T06:52:50.294Z,7.85
2019-02-18T06:53:55.536Z,7.90
2019-02-18T06:55:00.561Z,8.28
2019-02-18T06:56:05.532Z,9.00
2019-02-18T06:57:41.491Z,8.30
2019-02-18T06:59:00.288Z,8.13
2019-02-18T07:00:22.896Z,7.80
2019-02-18T07:01:32.676Z,8.03
2019-02-18T07:02:44.156Z,7.58
2019-02-18T07:04:03.585Z,7.70
2019-02-18T07:05:42.102Z,8.10
2019-02-18T07:07:06.270Z,8.18
2019-02-18T07:08:27.609Z,8.00
2019-02-18T07:10:00.329Z,7.70
2019-02-18T07:11:13.036Z,8.18
2019-02-18T07:12:24.563Z,7.85
2019-02-18T07:13:29.344Z,7.70
2019-02-18T07:14:33.944Z,7.65
2019-02-18T07:15:38.702Z,8.08
2019-02-18T07:16:43.750Z,7.70
2019-02-18T07:17:48.748Z,8.35
2019-02-18T07:18:53.854Z,8.03
2019-02-18T07:19:58.660Z,7.53
2019-02-18T07:21:03.608Z,8.45
2019-02-18T07:22:08.724Z,8.25
2019-02-18T07:23:13.984Z,8.20
2019-02-18T07:24:19.262Z,8.38
2019-02-18T07:25:24.826Z,8.58
2019-02-18T07:26:30.143Z,8.00
2019-02-18T07:27:35.218Z,8.25
2019-02-18T07:28:40.791Z,8.05
2019-02-18T07:29:45.725Z,8.33
2019-02-18T07:30:51.023Z,8.23
2019-02-18T07:31:55.758Z,7.92
2019-02-18T07:33:01.333Z,8.23
2019-02-18T07:34:06.894Z,8.70
2019-02-18T07:35:12.155Z,7.85
2019-02-18T07:36:16.862Z,7.20
2019-02-18T07:37:22.449Z,7.72
2019-02-18T07:38:27.446Z,7.87
2019-02-18T07:39:32.720Z,8.10
2019-02-18T07:40:37.719Z,8.08
2019-02-18T07:41:42.769Z,8.50
2019-02-18T07:42:48.631Z,8.00
2019-02-18T07:43:54.202Z,8.10
2019-02-18T07:44:58.940Z,8.10
2019-02-18T07:46:04.015Z,9.13
2019-02-18T07:47:08.941Z,8.20
2019-02-18T07:48:14.236Z,7.50
2019-02-18T07:49:19.272Z,8.30
2019-02-18T07:50:23.958Z,8.50
2019-02-18T07:51:28.910Z,8.28
2019-02-18T07:52:33.523Z,8.58
2019-02-18T07:53:38.781Z,8.20
2019-02-18T07:54:43.458Z,8.83
2019-02-18T07:55:48.490Z,7.85
2019-02-18T07:56:53.510Z,8.68
2019-02-18T07:57:58.880Z,8.80
2019-02-18T07:59:03.870Z,8.35
2019-02-18T08:00:10.348Z,7.97
2019-02-18T08:01:15.604Z,8.35
2019-02-18T08:02:20.283Z,8.05
2019-02-18T08:03:25.298Z,8.18
2019-02-18T08:04:30.384Z,8.00
2019-02-18T08:05:35.667Z,7.92
2019-02-18T08:06:40.677Z,8.45
2019-02-18T08:07:45.674Z,8.05
2019-02-18T08:08:50.894Z,8.25
2019-02-18T08:09:56.181Z,7.92
2019-02-18T08:11:00.881Z,7.75
2019-02-18T08:12:05.850Z,8.05
2019-02-18T08:13:11.100Z,7.80
2019-02-18T08:14:16.669Z,8.78
2019-02-18T08:15:22.013Z,7.85
2019-02-18T08:16:26.991Z,8.28
2019-02-18T08:17:32.059Z,8.63
2019-02-18T08:18:37.175Z,8.20
2019-02-18T08:19:42.547Z,8.15
2019-02-18T08:20:47.506Z,7.72
2019-02-18T08:21:53.233Z,8.53
2019-02-18T08:22:58.455Z,8.58
2019-02-18T08:24:03.720Z,8.10
2019-02-18T08:25:09.041Z,8.23
2019-02-18T08:26:14.323Z,8.65
2019-02-18T08:27:19.549Z,8.68
2019-02-18T08:28:24.343Z,8.00
2019-02-18T08:29:29.334Z,8.13
2019-02-18T08:30:34.323Z,8.48
2019-02-18T08:31:39.334Z,7.95
2019-02-18T08:32:44.317Z,8.75
2019-02-18T08:33:49.581Z,7.72
2019-02-18T08:34:54.932Z,8.40
2019-02-18T08:35:59.653Z,8.00
2019-02-18T08:37:04.896Z,8.58
2019-02-18T08:38:10.193Z,8.23
2019-02-18T08:39:15.475Z,8.48
2019-02-18T08:40:22.602Z,8.50
2019-02-18T08:41:27.488Z,8.20
2019-02-18T08:42:34.266Z,8.50
2019-02-18T08:43:39.630Z,8.08
2019-02-18T08:44:44.319Z,7.75
2019-02-18T08:45:49.764Z,8.05
2019-02-18T08:46:55.058Z,8.95
2019-02-18T08:48:00.316Z,8.05
2019-02-18T08:49:05.035Z,8.55
2019-02-18T08:50:11.582Z,8.80
2019-02-18T08:51:16.615Z,8.88
2019-02-18T08:52:21.298Z,8.58
2019-02-18T08:53:26.690Z,8.30
2019-02-18T08:54:31.673Z,8.90
2019-02-18T08:55:37.214Z,8.40
2019-02-18T08:56:42.530Z,7.78
2019-02-18T08:57:47.510Z,8.38
2019-02-18T08:58:52.500Z,8.13
2019-02-18T08:59:57.079Z,8.83
2019-02-18T09:01:03.000Z,7.90
2019-02-18T09:02:08.272Z,8.10
2019-02-18T09:03:13.264Z,8.45
2019-02-18T09:04:18.788Z,9.05
2019-02-18T09:05:23.816Z,9.15
2019-02-18T09:06:28.625Z,8.28
2019-02-18T09:07:33.349Z,9.35
2019-02-18T09:08:38.600Z,8.95
2019-02-18T09:09:43.993Z,9.03
2019-02-18T09:10:49.240Z,8.83
2019-02-18T09:11:54.275Z,8.48
2019-02-18T09:12:58.966Z,8.65
2019-02-18T09:14:03.682Z,9.55
2019-02-18T09:15:08.947Z,9.03
2019-02-18T09:16:13.861Z,8.85
2019-02-18T09:17:18.890Z,8.68
2019-02-18T09:18:23.337Z,8.35
2019-02-18T09:19:28.900Z,8.73
2019-02-18T09:20:34.443Z,8.03
2019-02-18T09:21:39.478Z,9.28
2019-02-18T09:23:01.471Z,9.40
2019-02-18T09:24:19.735Z,8.73
2019-02-18T09:25:28.937Z,9.18
2019-02-18T09:26:34.510Z,8.75
2019-02-18T09:27:39.859Z,9.63
2019-02-18T09:28:44.821Z,8.83
2019-02-18T09:29:49.281Z,9.35
2019-02-18T09:30:55.917Z,8.35
2019-02-18T09:32:00.833Z,8.93
2019-02-18T09:33:05.547Z,8.20
2019-02-18T09:34:10.590Z,8.73
2019-02-18T09:35:15.882Z,9.15
2019-02-18T09:36:21.474Z,9.03
2019-02-18T09:37:27.086Z,8.75
2019-02-18T09:38:32.701Z,8.08
2019-02-18T09:39:37.994Z,9.05
2019-02-18T09:40:46.101Z,8.70
2019-02-18T09:41:50.623Z,8.83
2019-02-18T09:42:55.899Z,9.35
2019-02-18T09:44:00.895Z,8.85
2019-02-18T09:45:06.271Z,8.93
2019-02-18T09:46:11.267Z,8.00
2019-02-18T09:47:16.490Z,8.95
2019-02-18T09:48:21.873Z,8.28
2019-02-18T09:49:26.991Z,7.95
2019-02-18T09:50:31.693Z,9.00
2019-02-18T09:51:36.948Z,8.33
2019-02-18T09:52:41.938Z,8.85
2019-02-18T09:53:47.220Z,8.63
2019-02-18T09:54:52.198Z,9.23
2019-02-18T09:55:57.078Z,8.48
2019-02-18T09:57:02.054Z,8.40
2019-02-18T09:58:06.567Z,8.33
2019-02-18T09:59:11.525Z,8.98
2019-02-18T10:00:16.231Z,8.15
2019-02-18T10:01:21.277Z,8.58
2019-02-18T10:02:26.503Z,8.90
2019-02-18T10:03:32.410Z,8.63
2019-02-18T10:04:37.601Z,8.38
2019-02-18T10:05:42.838Z,8.88
2019-02-18T10:06:47.559Z,7.95
2019-02-18T10:07:52.843Z,7.90
2019-02-18T10:08:58.487Z,8.58
2019-02-18T10:10:04.690Z,8.15
2019-02-18T10:11:09.905Z,8.73
2019-02-18T10:12:18.369Z,8.45
2019-02-18T10:13:21.541Z,8.43
2019-02-18T10:14:26.263Z,8.13
2019-02-18T10:15:31.260Z,8.68
2019-02-18T10:16:36.286Z,8.45
2019-02-18T10:17:41.725Z,8.33
2019-02-18T10:18:46.797Z,8.35
2019-02-18T10:19:51.576Z,8.30
2019-02-18T10:20:56.886Z,8.73
2019-02-18T10:22:01.605Z,8.68
2019-02-18T10:23:06.587Z,8.95
2019-02-18T10:24:11.518Z,8.80
2019-02-18T10:25:16.762Z,8.70
2019-02-18T10:26:22.086Z,8.88
2019-02-18T10:27:26.765Z,8.60
2019-02-18T10:28:31.747Z,9.10
2019-02-18T10:29:36.441Z,9.08
2019-02-18T10:30:41.394Z,8.33
2019-02-18T10:31:46.663Z,9.65
2019-02-18T10:32:51.932Z,9.55
2019-02-18T10:33:56.911Z,9.08
2019-02-18T10:35:02.171Z,8.53
2019-02-18T10:36:07.131Z,9.03
2019-02-18T10:37:12.141Z,9.20
2019-02-18T10:38:17.647Z,9.05
2019-02-18T10:39:22.634Z,9.25
2019-02-18T10:40:27.610Z,9.50
2019-02-18T10:41:32.579Z,9.05
2019-02-18T10:42:37.553Z,9.63
2019-02-18T10:43:42.236Z,9.23
2019-02-18T10:44:47.498Z,9.35
2019-02-18T10:45:53.130Z,9.08
2019-02-18T10:46:57.822Z,8.98
2019-02-18T10:48:02.775Z,9.23
2019-02-18T10:49:19.031Z,9.10
2019-02-18T10:50:14.375Z,9.53
2019-02-18T10:51:19.173Z,9.75
2019-02-18T10:52:24.247Z,9.98
2019-02-18T10:53:29.300Z,10.63
2019-02-18T10:54:34.804Z,10.50
2019-02-18T10:55:40.186Z,11.48
2019-02-18T10:56:44.870Z,11.15
2019-02-18T10:57:50.468Z,10.75
2019-02-18T10:58:55.739Z,9.23
2019-02-18T11:00:00.993Z,9.33
2019-02-18T11:01:06.186Z,8.75
2019-02-18T11:02:11.189Z,8.55
2019-02-18T11:03:16.155Z,9.03
2019-02-18T11:04:21.116Z,9.03
2019-02-18T11:05:26.646Z,8.08
2019-02-18T11:06:31.961Z,8.63
2019-02-18T11:07:36.960Z,8.60
2019-02-18T11:08:42.237Z,8.88
2019-02-18T11:09:47.495Z,8.18
2019-02-18T11:10:52.187Z,8.55
2019-02-18T11:11:57.164Z,8.85
2019-02-18T11:13:02.167Z,8.13
2019-02-18T11:14:06.848Z,8.25
2019-02-18T11:15:12.589Z,8.40
2019-02-18T11:16:17.302Z,9.03
2019-02-18T11:17:22.035Z,8.63
2019-02-18T11:18:27.070Z,7.83
2019-02-18T11:19:32.087Z,8.35
2019-02-18T11:20:37.380Z,7.97
2019-02-18T11:21:42.394Z,9.03
2019-02-18T11:22:47.141Z,8.85
2019-02-18T11:23:52.411Z,9.38
2019-02-18T11:24:59.435Z,9.13
2019-02-18T11:26:04.706Z,9.85
2019-02-18T11:27:09.496Z,9.48
2019-02-18T11:28:14.486Z,8.73
2019-02-18T11:29:19.729Z,8.98
2019-02-18T11:30:25.304Z,8.73
2019-02-18T11:31:30.551Z,8.68
2019-02-18T11:32:35.810Z,9.08
2019-02-18T11:33:41.319Z,8.90
2019-02-18T11:34:45.755Z,8.03
2019-02-18T11:35:51.009Z,7.83
2019-02-18T11:36:56.012Z,8.25
2019-02-18T11:38:01.370Z,8.35
2019-02-18T11:39:11.733Z,7.95
2019-02-18T11:40:16.705Z,8.30
2019-02-18T11:41:27.387Z,8.60
2019-02-18T11:42:28.668Z,8.50
2019-02-18T11:43:33.679Z,8.55
2019-02-18T11:44:38.409Z,7.70
2019-02-18T11:45:43.451Z,8.23
2019-02-18T11:46:48.550Z,8.10
2019-02-18T11:47:53.915Z,8.30
2019-02-18T11:48:58.918Z,8.68
2019-02-18T11:50:04.188Z,8.28
2019-02-18T11:51:09.145Z,9.23
2019-02-18T11:52:13.870Z,8.45
2019-02-18T11:53:19.141Z,8.18
2019-02-18T11:54:24.132Z,8.43
2019-02-18T11:55:28.929Z,8.15
2019-02-18T11:56:34.239Z,9.00
2019-02-18T11:57:39.761Z,8.13
2019-02-18T11:58:44.466Z,8.50
2019-02-18T11:59:49.900Z,8.55
2019-02-18T12:00:54.775Z,8.53
2019-02-18T12:01:59.817Z,8.83
2019-02-18T12:03:12.109Z,8.73
2019-02-18T12:04:12.126Z,8.78
2019-02-18T12:05:17.363Z,8.38
2019-02-18T12:06:22.657Z,8.00
2019-02-18T12:07:27.903Z,8.35
2019-02-18T12:08:33.179Z,8.43
2019-02-18T12:09:38.164Z,9.18
2019-02-18T12:10:43.143Z,8.10
2019-02-18T12:11:48.565Z,8.13
2019-02-18T12:12:56.124Z,8.65
2019-02-18T12:14:01.781Z,8.63
2019-02-18T12:15:07.323Z,8.03
2019-02-18T12:16:12.509Z,7.90
2019-02-18T12:17:20.554Z,8.10
2019-02-18T12:18:23.725Z,7.80
2019-02-18T12:19:29.007Z,7.87
2019-02-18T12:20:35.200Z,8.80
2019-02-18T12:21:40.327Z,9.15
2019-02-18T12:22:45.442Z,8.38
2019-02-18T12:23:50.707Z,8.30
2019-02-18T12:24:55.901Z,7.95
2019-02-18T12:26:01.457Z,8.63
2019-02-18T12:27:06.424Z,8.23
2019-02-18T12:28:11.096Z,8.28
2019-02-18T12:29:25.897Z,8.35
2019-02-18T12:30:22.712Z,8.03
2019-02-18T12:31:27.660Z,8.15
2019-02-18T12:32:32.622Z,7.78
2019-02-18T12:33:37.871Z,7.72
2019-02-18T12:34:42.646Z,7.62
2019-02-18T12:35:47.362Z,8.18
2019-02-18T12:36:52.622Z,8.18
2019-02-18T12:37:57.630Z,7.53
2019-02-18T12:39:02.657Z,8.25
2019-02-18T12:40:07.957Z,8.50
2019-02-18T12:41:12.956Z,7.90
2019-02-18T12:42:18.315Z,8.20
2019-02-18T12:43:23.802Z,7.78
2019-02-18T12:44:28.241Z,8.13
2019-02-18T12:45:32.989Z,7.97
2019-02-18T12:46:39.803Z,8.63
2019-02-18T12:47:44.539Z,8.45
2019-02-18T12:48:49.248Z,7.78
2019-02-18T12:49:54.836Z,7.45
2019-02-18T12:50:59.804Z,7.28
2019-02-18T12:52:05.176Z,7.92
2019-02-18T12:53:10.165Z,8.33
2019-02-18T12:54:15.470Z,8.18
2019-02-18T12:55:20.631Z,8.30
2019-02-18T12:56:25.668Z,8.35
2019-02-18T12:57:30.939Z,7.92
2019-02-18T12:58:36.253Z,7.90
2019-02-18T12:59:42.378Z,8.50
2019-02-18T13:00:47.281Z,8.28
2019-02-18T13:01:51.985Z,8.05
2019-02-18T13:02:56.979Z,8.10
2019-02-18T13:04:01.980Z,8.23
2019-02-18T13:05:07.524Z,7.58
2019-02-18T13:06:12.582Z,8.30
2019-02-18T13:07:18.097Z,7.97
2019-02-18T13:08:25.054Z,7.78
2019-02-18T13:09:29.772Z,8.30
2019-02-18T13:10:35.195Z,8.55
2019-02-18T13:11:40.416Z,8.88
2019-02-18T13:12:45.691Z,8.28
2019-02-18T13:13:51.237Z,7.17
2019-02-18T13:14:57.245Z,8.30
2019-02-18T13:16:02.439Z,7.92
2019-02-18T13:17:07.573Z,7.33
2019-02-18T13:18:12.013Z,7.50
2019-02-18T13:19:17.555Z,7.53
2019-02-18T13:20:22.542Z,8.38
2019-02-18T13:21:27.812Z,7.85
2019-02-18T13:22:32.817Z,8.23
2019-02-18T13:23:37.506Z,7.40
2019-02-18T13:24:42.242Z,7.00
2019-02-18T13:25:47.949Z,7.62
2019-02-18T13:26:52.645Z,8.43
2019-02-18T13:27:58.027Z,7.75
2019-02-18T13:29:03.018Z,7.33
2019-02-18T13:30:10.868Z,7.70
2019-02-18T13:31:15.548Z,7.70
2019-02-18T13:32:21.070Z,7.10
2019-02-18T13:33:26.032Z,7.83
2019-02-18T13:34:31.140Z,7.10
2019-02-18T13:35:36.683Z,7.25
2019-02-18T13:36:43.739Z,6.90
2019-02-18T13:37:48.701Z,8.05
2019-02-18T13:38:53.508Z,7.25
2019-02-18T13:39:58.504Z,6.90
2019-02-18T13:41:03.680Z,7.25
2019-02-18T13:42:08.338Z,7.22
2019-02-18T13:43:14.008Z,6.55
2019-02-18T13:44:18.987Z,7.33
2019-02-18T13:45:24.228Z,7.40
2019-02-18T13:46:29.247Z,7.33
2019-02-18T13:47:34.784Z,6.80
2019-02-18T13:48:39.769Z,7.12
2019-02-18T13:49:44.498Z,7.20
2019-02-18T13:50:49.369Z,6.83
2019-02-18T13:51:56.680Z,8.10
2019-02-18T13:53:01.879Z,7.55
2019-02-18T13:54:06.580Z,7.22
2019-02-18T13:55:11.485Z,7.20
2019-02-18T13:56:16.564Z,6.90
2019-02-18T13:57:21.819Z,6.65
2019-02-18T13:58:27.064Z,7.05
2019-02-18T13:59:32.316Z,7.55
2019-02-18T14:00:37.777Z,6.67
2019-02-18T14:01:42.470Z,6.50
2019-02-18T14:02:47.657Z,6.72
2019-02-18T14:03:52.628Z,6.15
2019-02-18T14:04:57.416Z,7.03
2019-02-18T14:06:02.411Z,6.87
2019-02-18T14:07:07.359Z,6.92
2019-02-18T14:08:15.104Z,6.40
2019-02-18T14:09:20.742Z,6.92
2019-02-18T14:10:26.093Z,6.60
2019-02-18T14:11:30.844Z,6.78
2019-02-18T14:12:35.815Z,6.17
2019-02-18T14:13:40.585Z,6.33
2019-02-18T14:14:45.851Z,6.30
2019-02-18T14:15:51.701Z,7.20
2019-02-18T14:16:56.778Z,5.92
2019-02-18T14:18:01.847Z,6.17
2019-02-18T14:19:06.523Z,6.65
2019-02-18T14:20:14.050Z,6.40
2019-02-18T14:21:19.009Z,6.33
2019-02-18T14:22:23.975Z,6.28
2019-02-18T14:23:28.967Z,6.25
2019-02-18T14:24:33.714Z,6.90
2019-02-18T14:25:39.002Z,6.33
2019-02-18T14:26:43.799Z,6.47
2019-02-18T14:27:49.039Z,6.35
2019-02-18T14:28:53.793Z,6.40
2019-02-18T14:29:58.778Z,6.08
2019-02-18T14:31:05.143Z,6.33
2019-02-18T14:32:09.637Z,6.05
2019-02-18T14:33:14.591Z,6.75
2019-02-18T14:34:19.314Z,6.58